Time;durP1;ratioP1;P1;durP2;ratioP2;P2;SDS_P1;SDS_P2;PMS_P1;PMS_P2;Temp;Humidity;BMP_temperature;BMP_pressure;BME280_temperature;BME280_humidity;BME280_pressure;Samples;Min_cycle;Max_cycle;Signal;HPM_P1;HPM_P2
2021/12/05 00:17:51;;;;;;;0.00;0.00;;;;;;;6.18;93.58;98472.75;4994317;28;20544;-71
2021/12/05 00:23:17;;;;;;;0.00;0.00;;;;;;;6.19;93.28;98469.81;4993997;28;20039;-70
2021/12/05 00:25:48;;;;;;;0.00;0.00;;;;;;;6.17;93.11;98468.47;4997093;28;20038;-69
2021/12/05 00:57:27;;;;;;;0.00;0.00;;;;;;;6.45;93.25;98448.63;5003194;28;20116;-72
2021/12/05 01:02:39;;;;;;;0.00;0.00;;;;;;;6.60;92.86;98460.34;5008886;28;20117;-73
2021/12/05 01:15:26;;;;;;;0.00;0.00;;;;;;;6.59;92.76;98458.75;4998422;28;20062;-69
2021/12/05 01:20:21;;;;;;;0.00;0.00;;;;;;;6.48;92.13;98445.47;4996736;28;20034;-73
2021/12/05 01:22:56;;;;;;;0.00;0.00;;;;;;;6.60;92.09;98439.88;4979212;28;20457;-72
2021/12/05 01:39:10;;;;;;;0.00;0.00;;;;;;;6.60;93.21;98447.06;4995677;28;20039;-73
2021/12/05 02:08:09;;;;;;;0.00;0.00;;;;;;;6.42;93.56;98419.94;4980293;28;20061;-70
2021/12/05 02:45:20;;;;;;;0.00;0.00;;;;;;;6.14;95.59;98413.25;4992950;28;20034;-71
2021/12/05 02:47:50;;;;;;;0.00;0.00;;;;;;;6.18;95.41;98409.81;4987154;28;20437;-73
2021/12/05 02:50:18;;;;;;;0.00;0.00;;;;;;;6.16;95.09;98401.28;4991670;28;20034;-72
2021/12/05 02:52:44;;;;;;;0.00;0.00;;;;;;;6.24;95.38;98406.09;5007300;28;20502;-74
2021/12/05 02:55:16;;;;;;;0.00;0.00;;;;;;;6.31;94.69;98407.69;4999206;28;20026;-74
2021/12/05 03:00:16;;;;;;;0.00;0.00;;;;;;;6.21;94.84;98401.31;4992931;28;20038;-75
2021/12/05 03:02:45;;;;;;;0.00;0.00;;;;;;;6.28;94.44;98411.69;4997533;28;20030;-72
2021/12/05 03:05:15;;;;;;;0.00;0.00;;;;;;;6.30;94.39;98406.09;4996892;28;20445;-71
2021/12/05 03:07:42;;;;;;;0.00;0.00;;;;;;;6.29;94.39;98405.31;5004197;28;20398;-73
2021/12/05 03:10:12;;;;;;;0.00;0.00;;;;;;;6.21;94.70;98381.94;4980749;28;20069;-76
2021/12/05 03:12:39;;;;;;;0.00;0.00;;;;;;;6.29;94.79;98397.34;4993416;28;20104;-75
2021/12/05 03:15:09;;;;;;;0.00;0.00;;;;;;;6.32;93.96;98391.50;5003465;28;20121;-74
2021/12/05 03:17:35;;;;;;;0.00;0.00;;;;;;;6.24;94.65;98381.41;5013499;28;20420;-74
2021/12/05 03:20:00;;;;;;;0.00;0.00;;;;;;;6.20;94.62;98378.47;4984283;28;20125;-74
2021/12/05 03:22:26;;;;;;;0.00;0.00;;;;;;;6.25;94.42;98375.81;4999409;28;20026;-73
2021/12/05 03:24:51;;;;;;;0.00;0.00;;;;;;;6.29;94.43;98383.28;5010254;28;20037;-71
2021/12/05 03:27:17;;;;;;;0.47;0.47;;;;;;;6.30;94.69;98392.81;5001094;28;20041;-74
2021/12/05 03:29:42;;;;;;;0.00;0.00;;;;;;;6.26;94.23;98387.22;4992987;28;20040;-75
2021/12/05 03:32:08;;;;;;;0.00;0.00;;;;;;;6.29;94.44;98388.59;4978866;28;20433;-75
2021/12/05 03:34:33;;;;;;;0.00;0.00;;;;;;;6.30;94.30;98384.84;4988504;28;20042;-75
2021/12/05 03:37:00;;;;;;;0.00;0.00;;;;;;;6.33;94.82;98382.47;4993020;28;20050;-72
2021/12/05 03:39:27;;;;;;;0.00;0.00;;;;;;;6.30;94.31;98382.19;4977434;28;20106;-74
2021/12/05 03:41:54;;;;;;;0.22;0.22;;;;;;;6.27;94.21;98375.56;4998019;28;20414;-73
2021/12/05 03:44:23;;;;;;;0.00;0.00;;;;;;;6.25;94.61;98375.81;5004866;28;20467;-72
2021/12/05 03:46:49;;;;;;;;;;;;;;;6.24;94.66;98384.06;5008637;28;20034;-75
2021/12/05 03:49:16;;;;;;;0.00;0.00;;;;;;;6.10;95.04;98378.44;4980898;28;19918;-74
2021/12/05 03:51:54;;;;;;;0.00;0.00;;;;;;;6.05;95.16;98375.78;5007798;28;20061;-74
2021/12/05 03:54:21;;;;;;;0.00;0.00;;;;;;;6.11;95.31;98379.25;4998789;28;20036;-73
2021/12/05 03:56:47;;;;;;;0.00;0.00;;;;;;;6.08;95.10;98381.38;4988373;28;20038;-73
2021/12/05 03:59:13;;;;;;;0.00;0.00;;;;;;;6.10;95.91;98381.09;4993517;28;20057;-73
2021/12/05 04:01:40;;;;;;;0.00;0.00;;;;;;;5.86;95.59;98356.88;5007987;28;20030;-73
2021/12/05 04:04:07;;;;;;;0.00;0.00;;;;;;;6.02;95.77;98381.66;4985045;28;20445;-74
2021/12/05 04:06:33;;;;;;;0.00;0.00;;;;;;;5.96;96.41;98374.66;5004832;28;20060;-73
2021/12/05 04:09:01;;;;;;;7.45;0.98;;;;;;;6.02;96.54;98382.44;4976612;28;20498;-73
2021/12/05 04:11:34;;;;;;;0.00;0.00;;;;;;;5.98;95.87;98384.00;4997747;28;20030;-75
2021/12/05 04:14:00;;;;;;;0.05;0.05;;;;;;;6.06;96.44;98394.09;4978674;28;20073;-74
2021/12/05 04:16:26;;;;;;;0.00;0.00;;;;;;;6.17;96.27;98399.44;4997978;28;20053;-73
2021/12/05 04:18:52;;;;;;;0.08;0.08;;;;;;;6.15;96.23;98404.22;4991727;28;20026;-73
2021/12/05 04:21:18;;;;;;;0.00;0.00;;;;;;;6.06;96.46;98378.19;5008843;28;20030;-74
2021/12/05 04:23:45;;;;;;;0.20;0.20;;;;;;;6.07;96.15;98387.75;4993911;28;20031;-73
2021/12/05 04:26:10;;;;;;;0.00;0.00;;;;;;;6.05;96.55;98379.25;4997395;28;20058;-72
2021/12/05 04:28:38;;;;;;;0.10;0.10;;;;;;;6.11;96.57;98390.66;5003663;28;20034;-73
2021/12/05 04:31:06;;;;;;;1.65;0.43;;;;;;;5.87;96.48;98359.28;4982662;28;20544;-73
2021/12/05 04:33:32;;;;;;;0.45;0.22;;;;;;;6.03;96.84;98389.34;4977274;28;20027;-73
2021/12/05 04:35:57;;;;;;;0.00;0.00;;;;;;;6.13;96.95;98399.19;4977701;28;20088;-72
2021/12/05 04:38:23;;;;;;;0.00;0.00;;;;;;;6.22;96.42;98418.03;4995024;28;20405;-73
2021/12/05 04:40:49;;;;;;;0.32;0.32;;;;;;;6.17;95.92;98405.53;5004557;28;20036;-71
2021/12/05 04:43:15;;;;;;;0.00;0.00;;;;;;;6.29;96.44;98423.91;5002444;28;20496;-70
2021/12/05 04:45:41;;;;;;;0.00;0.00;;;;;;;6.21;96.21;98403.16;4996532;28;20022;-71
2021/12/05 04:48:07;;;;;;;0.00;0.00;;;;;;;6.10;95.74;98391.72;5005130;28;20481;-71
2021/12/05 04:50:33;;;;;;;0.00;0.00;;;;;;;6.17;96.63;98405.53;5000204;28;20076;-70
2021/12/05 04:53:00;;;;;;;0.00;0.00;;;;;;;6.16;96.18;98414.56;4976562;28;20125;-70
2021/12/05 04:55:26;;;;;;;0.38;0.38;;;;;;;6.27;96.78;98433.19;5006795;28;20075;-71
2021/12/05 04:57:53;;;;;;;0.25;0.25;;;;;;;6.20;96.88;98425.47;5008811;28;20027;-73
2021/12/05 05:00:28;;;;;;;0.00;0.00;;;;;;;6.24;96.71;98435.31;4994992;28;20536;-74
2021/12/05 05:02:56;;;;;;;0.00;0.00;;;;;;;6.22;96.57;98436.63;4994056;28;20035;-75
2021/12/05 05:05:24;;;;;;;0.00;0.00;;;;;;;6.20;96.68;98430.78;4987506;28;20043;-73
2021/12/05 05:07:50;;;;;;;0.00;0.00;;;;;;;6.26;96.69;98445.66;4975937;28;20038;-74
2021/12/05 05:10:22;;;;;;;0.08;0.08;;;;;;;6.19;96.85;98431.81;4994418;28;20513;-74
2021/12/05 05:12:48;;;;;;;0.57;0.47;;;;;;;6.27;96.76;98444.59;5012116;28;20037;-72
2021/12/05 05:15:19;;;;;;;0.00;0.00;;;;;;;6.19;96.50;98445.09;4998391;28;20105;-72
2021/12/05 05:17:46;;;;;;;0.00;0.00;;;;;;;6.31;97.02;98472.25;4982064;28;20031;-69
2021/12/05 05:52:09;;;;;;;0.10;0.10;;;;;;;6.42;96.43;98473.06;5002297;28;20117;-69
2021/12/05 05:54:35;;;;;;;0.40;0.40;;;;;;;6.32;95.72;98451.78;4993820;28;20114;-70
2021/12/05 05:57:11;;;;;;;0.00;0.00;;;;;;;6.30;95.98;98475.97;5002714;28;20092;-70
2021/12/05 05:59:48;;;;;;;0.00;0.00;;;;;;;6.30;96.38;98481.28;4991374;28;20248;-70
2021/12/05 06:04:39;;;;;;;0.00;0.00;;;;;;;6.19;96.15;98487.59;4999630;28;20049;-73
2021/12/05 06:07:04;;;;;;;0.10;0.10;;;;;;;6.05;96.57;98476.66;4989680;28;20037;-75
2021/12/05 06:09:30;;;;;;;0.00;0.00;;;;;;;5.99;97.13;98478.50;5003097;28;20410;-75
2021/12/05 06:11:55;;;;;;;0.15;0.15;;;;;;;5.98;98.09;98492.81;4987165;28;20030;-76
2021/12/05 06:14:21;;;;;;;0.20;0.20;;;;;;;5.98;98.23;98495.47;4980464;28;20038;-75
2021/12/05 06:16:46;;;;;;;0.00;0.00;;;;;;;6.00;97.89;98503.19;4984731;28;20034;-75
2021/12/05 06:19:13;;;;;;;0.00;0.00;;;;;;;5.94;98.49;98494.38;4973529;28;20113;-69
2021/12/05 06:21:38;;;;;;;0.00;0.00;;;;;;;6.05;98.52;98511.19;5002039;28;20080;-70
2021/12/05 06:24:04;;;;;;;0.00;0.00;;;;;;;6.03;98.14;98516.75;5001832;28;20045;-72
2021/12/05 06:26:30;;;;;;;0.00;0.00;;;;;;;6.00;98.41;98517.25;5003672;28;20026;-71
2021/12/05 06:29:12;;;;;;;0.25;0.25;;;;;;;5.88;98.15;98501.53;5003481;28;20088;-72
2021/12/05 06:37:00;;;;;;;0.00;0.00;;;;;;;6.00;98.92;98519.91;4995026;28;20045;-71
2021/12/05 06:40:18;;;;;;;0.10;0.10;;;;;;;6.01;98.42;98508.22;4990880;28;20489;-74
2021/12/05 06:47:30;;;;;;;2.42;1.35;;;;;;;5.93;98.75;98495.41;4995411;28;20128;-73
2021/12/05 06:49:56;;;;;;;0.75;0.55;;;;;;;5.85;98.93;98501.25;4996419;28;20038;-73
2021/12/05 06:52:23;;;;;;;0.00;0.00;;;;;;;5.93;99.15;98504.19;5003524;28;20029;-73
2021/12/05 06:54:48;;;;;;;0.00;0.00;;;;;;;5.97;98.98;98515.09;4973407;28;20037;-74
2021/12/05 06:57:14;;;;;;;0.00;0.00;;;;;;;5.91;98.94;98516.91;4995954;28;20039;-75
2021/12/05 06:59:41;;;;;;;0.03;0.03;;;;;;;5.95;98.47;98514.56;4991440;28;20030;-74
2021/12/05 07:02:09;;;;;;;0.30;0.30;;;;;;;5.98;99.11;98522.00;4992580;28;20058;-74
2021/12/05 07:07:02;;;;;;;0.00;0.00;;;;;;;6.01;98.17;98521.50;4987413;28;20035;-74
2021/12/05 07:09:28;;;;;;;0.15;0.15;;;;;;;6.01;98.38;98523.38;4971238;28;20030;-75
2021/12/05 07:14:55;;;;;;;0.00;0.00;;;;;;;6.06;98.37;98524.19;4973050;28;20481;-72
2021/12/05 07:22:49;;;;;;;0.90;0.57;;;;;;;6.05;98.27;98511.19;4975326;28;20031;-72
2021/12/05 07:25:26;;;;;;;0.20;0.20;;;;;;;6.14;97.87;98530.06;4976444;28;20073;-73
2021/12/05 07:43:59;;;;;;;0.50;0.50;;;;;;;6.07;97.86;98517.03;4973422;28;20046;-74
2021/12/05 07:46:25;;;;;;;0.00;0.00;;;;;;;6.11;97.84;98526.06;4972486;28;20038;-70
2021/12/05 07:48:51;;;;;;;0.70;0.70;;;;;;;5.86;98.08;98498.31;4971539;28;20027;-72
2021/12/05 07:56:36;;;;;;;0.47;0.47;;;;;;;6.04;98.57;98514.88;4975341;28;20034;-71
2021/12/05 08:00:13;;;;;;;0.00;0.00;;;;;;;6.16;99.10;98527.94;4978626;28;20034;-70
2021/12/05 08:16:26;;;;;;;0.00;0.00;;;;;;;6.19;98.55;98503.50;5008165;28;20049;-70
2021/12/05 08:18:27;;;;;;;;;;;;;;;6.25;98.87;98510.47;4994663;28;20038;-72
2021/12/05 08:20:53;;;;;;;0.88;0.85;;;;;;;6.20;98.68;98513.91;5001853;28;19968;-72
2021/12/05 08:23:20;;;;;;;0.80;0.80;;;;;;;6.20;98.79;98513.91;4997923;28;20030;-78
2021/12/05 08:25:53;;;;;;;0.75;0.75;;;;;;;6.17;99.22;98506.44;4986527;28;20030;-73
2021/12/05 08:30:49;;;;;;;0.00;0.00;;;;;;;6.22;99.17;98506.44;5010479;28;20053;-75
2021/12/05 08:41:33;;;;;;;0.00;0.00;;;;;;;6.32;99.40;98512.88;5003468;28;20036;-74
2021/12/05 09:25:00;;;;;;;0.47;0.47;;;;;;;6.54;99.95;98463.00;4998084;28;20184;-71
2021/12/05 10:03:10;;;;;;;0.00;0.00;;;;;;;7.18;97.42;98426.28;4975283;28;20049;-72
2021/12/05 10:13:31;;;;;;;0.00;0.00;;;;;;;7.28;96.08;98420.16;5009843;28;20091;-75
2021/12/05 10:35:54;;;;;;;0.10;0.10;;;;;;;7.35;95.52;98398.63;5010213;28;20100;-72
2021/12/05 10:38:31;;;;;;;0.32;0.32;;;;;;;7.42;95.55;98401.78;4995864;28;20034;-72
2021/12/05 10:41:17;;;;;;;0.30;0.30;;;;;;;7.47;95.29;98399.09;4992409;28;20034;-74
2021/12/05 10:43:46;;;;;;;0.10;0.10;;;;;;;7.55;95.37;98402.28;4991656;28;20030;-72
2021/12/05 10:46:15;;;;;;;0.00;0.00;;;;;;;7.52;94.75;98409.72;4973964;28;20030;-70
2021/12/05 10:49:03;;;;;;;0.28;0.28;;;;;;;7.53;94.32;98416.66;4995895;28;20088;-73
2021/12/05 10:51:37;;;;;;;0.03;0.03;;;;;;;7.52;94.48;98406.28;5002815;28;20091;-72
2021/12/05 10:54:17;;;;;;;0.00;0.00;;;;;;;7.58;94.54;98404.38;4998981;28;20041;-74
2021/12/05 10:56:51;;;;;;;0.00;0.00;;;;;;;7.51;94.23;98394.03;4974117;28;20041;-75
2021/12/05 10:59:24;;;;;;;0.13;0.13;;;;;;;7.48;94.77;98399.88;4991514;28;20022;-73
2021/12/05 11:01:58;;;;;;;1.25;1.25;;;;;;;7.30;94.87;98380.00;4997903;28;20117;-73
2021/12/05 11:04:28;;;;;;;0.30;0.30;;;;;;;7.38;95.18;98392.75;4989863;28;20049;-77
2021/12/05 11:07:00;;;;;;;1.85;0.55;;;;;;;7.35;95.08;98387.97;4974242;28;20064;-74
2021/12/05 11:09:37;;;;;;;2.47;0.88;;;;;;;7.43;95.53;98390.06;4995018;28;20044;-73
2021/12/05 11:12:11;;;;;;;0.10;0.10;;;;;;;7.42;95.96;98374.38;4991097;28;20030;-73
2021/12/05 11:14:41;;;;;;;0.00;0.00;;;;;;;7.41;95.23;98365.59;4991520;28;20122;-71
2021/12/05 11:17:29;;;;;;;0.00;0.00;;;;;;;7.55;95.82;98384.44;4996786;28;20029;-74
2021/12/05 11:20:18;;;;;;;0.00;0.00;;;;;;;7.65;95.40;98384.41;4997855;28;20030;-75
2021/12/05 11:22:52;;;;;;;;;;;;;;;7.72;94.93;98378.00;4993247;28;20080;-75
2021/12/05 11:25:21;;;;;;;0.73;0.73;;;;;;;7.72;94.21;98359.38;4982851;28;19924;-73
2021/12/05 11:27:50;;;;;;;0.20;0.20;;;;;;;7.76;94.28;98363.06;5010592;28;20042;-72
2021/12/05 11:30:25;;;;;;;0.65;0.65;;;;;;;7.81;94.46;98366.50;4991004;28;20030;-74
2021/12/05 11:32:55;;;;;;;0.05;0.05;;;;;;;7.88;94.31;98352.09;5004582;28;20026;-74
2021/12/05 11:35:42;;;;;;;0.00;0.00;;;;;;;7.95;93.79;98360.56;4993790;28;20026;-75
2021/12/05 11:38:07;;;;;;;0.00;0.00;;;;;;;7.99;93.45;98358.94;5014425;28;20057;-75
2021/12/05 11:40:45;;;;;;;0.00;0.00;;;;;;;7.98;93.62;98355.50;4996860;28;20115;-75
2021/12/05 11:43:15;;;;;;;0.00;0.00;;;;;;;8.02;92.56;98353.84;4996621;28;20120;-74
2021/12/05 11:46:11;;;;;;;0.00;0.00;;;;;;;8.09;92.61;98350.09;4996836;28;20034;-75
2021/12/05 11:48:37;;;;;;;0.20;0.20;;;;;;;8.11;92.18;98343.41;4969659;28;20050;-75
2021/12/05 11:51:16;;;;;;;0.00;0.00;;;;;;;8.11;91.75;98331.97;5013451;28;20041;-74
2021/12/05 11:53:46;;;;;;;0.00;0.00;;;;;;;8.10;91.50;98323.19;4992264;28;20120;-75
2021/12/05 11:56:22;;;;;;;0.00;0.00;;;;;;;8.07;91.16;98307.78;4997495;28;20025;-74
2021/12/05 11:59:06;;;;;;;0.10;0.10;;;;;;;8.10;91.77;98317.06;5005872;28;20033;-75
2021/12/05 12:01:46;;;;;;;0.05;0.05;;;;;;;8.10;91.87;98325.84;5013113;28;20062;-74
2021/12/05 12:04:13;;;;;;;0.00;0.00;;;;;;;8.11;91.82;98314.13;4976028;28;20153;-75
2021/12/05 12:06:41;;;;;;;0.50;0.38;;;;;;;8.08;91.62;98317.34;4976609;28;20022;-75
2021/12/05 12:09:06;;;;;;;0.70;0.70;;;;;;;8.20;91.97;98329.50;4993338;28;20037;-74
2021/12/05 12:11:32;;;;;;;0.00;0.00;;;;;;;8.17;90.86;98318.34;4976294;28;20035;-71
2021/12/05 12:13:58;;;;;;;0.00;0.00;;;;;;;8.23;90.91;98326.31;4993284;28;20038;-72
2021/12/05 12:16:23;;;;;;;0.10;0.10;;;;;;;8.25;90.78;98316.97;5011211;28;20469;-72
2021/12/05 12:18:50;;;;;;;0.03;0.03;;;;;;;8.33;90.36;98319.00;5011797;28;20026;-73
2021/12/05 12:21:22;;;;;;;0.00;0.00;;;;;;;8.33;90.03;98296.91;5011260;28;20026;-73
2021/12/05 12:23:50;;;;;;;0.00;0.00;;;;;;;8.31;89.96;98297.19;4993646;28;20489;-73
2021/12/05 12:26:16;;;;;;;0.22;0.22;;;;;;;8.32;90.07;98297.97;4975715;28;20061;-74
2021/12/05 12:28:42;;;;;;;0.00;0.00;;;;;;;8.32;89.77;98301.47;4993292;28;20401;-70
2021/12/05 12:31:28;;;;;;;0.20;0.20;;;;;;;8.29;89.81;98302.00;4993066;28;20113;-71
2021/12/05 12:33:56;;;;;;;0.00;0.00;;;;;;;8.34;90.21;98301.16;4993472;28;20133;-70
2021/12/05 12:36:43;;;;;;;0.47;0.47;;;;;;;8.39;90.12;98303.00;4992975;28;20023;-73
2021/12/05 12:39:20;;;;;;;0.00;0.00;;;;;;;8.40;89.63;98296.56;5012449;28;20105;-75
2021/12/05 12:42:12;;;;;;;0.00;0.00;;;;;;;8.40;89.67;98293.91;4990103;28;20023;-76
2021/12/05 12:44:56;;;;;;;0.10;0.10;;;;;;;8.39;90.17;98303.78;5005012;28;20493;-72
2021/12/05 12:47:31;;;;;;;0.00;0.00;;;;;;;8.43;89.75;98310.13;4995039;28;20485;-73
2021/12/05 12:50:29;;;;;;;0.10;0.10;;;;;;;8.45;89.65;98320.53;5012558;28;20026;-74
2021/12/05 12:53:09;;;;;;;0.20;0.20;;;;;;;8.41;89.68;98314.16;4994889;28;20508;-72
2021/12/05 12:55:36;;;;;;;0.10;0.10;;;;;;;8.44;89.39;98317.06;4994848;28;20069;-74
2021/12/05 12:58:06;;;;;;;0.00;0.00;;;;;;;8.44;89.74;98319.72;4982595;28;20025;-73
2021/12/05 13:00:40;;;;;;;0.98;0.95;;;;;;;8.34;89.40;98293.97;4985837;28;20088;-76
2021/12/05 13:03:28;;;;;;;0.45;0.45;;;;;;;8.43;89.58;98315.47;4992567;28;20496;-74
2021/12/05 13:07:22;;;;;;;0.43;0.43;;;;;;;8.44;89.83;98319.72;4975194;28;20129;-73
2021/12/05 13:11:48;;;;;;;0.10;0.10;;;;;;;8.51;89.21;98318.63;4992629;28;20124;-72
2021/12/05 13:14:14;;;;;;;0.00;0.00;;;;;;;8.48;89.16;98315.47;4992658;28;20026;-74
2021/12/05 13:16:42;;;;;;;0.00;0.00;;;;;;;8.47;88.71;98307.72;4975671;28;20026;-74
2021/12/05 13:19:15;;;;;;;0.05;0.05;;;;;;;8.56;88.79;98322.06;4993227;28;20559;-73
2021/12/05 13:21:45;;;;;;;0.10;0.10;;;;;;;8.57;88.56;98322.84;4996689;28;20168;-75
2021/12/05 13:24:25;;;;;;;0.10;0.10;;;;;;;8.55;88.23;98317.00;4985606;28;20029;-74
2021/12/05 13:26:58;;;;;;;0.20;0.20;;;;;;;8.44;88.54;98311.72;5012928;28;20085;-74
2021/12/05 13:29:26;;;;;;;3.55;0.90;;;;;;;8.52;88.70;98325.56;5012275;28;20038;-74
2021/12/05 13:32:07;;;;;;;1.33;1.27;;;;;;;8.50;88.86;98323.19;5012733;28;20029;-72
2021/12/05 13:34:43;;;;;;;0.30;0.30;;;;;;;8.48;88.98;98320.81;4976965;28;20038;-72
2021/12/05 13:37:08;;;;;;;0.00;0.00;;;;;;;8.48;88.66;98325.31;4974972;28;20030;-70
2021/12/05 13:39:49;;;;;;;0.43;0.43;;;;;;;8.48;88.75;98320.81;4992775;28;20640;-70
2021/12/05 13:42:25;;;;;;;0.55;0.55;;;;;;;8.45;89.06;98323.19;4992405;28;20058;-71
2021/12/05 13:44:57;;;;;;;0.13;0.13;;;;;;;8.45;89.01;98323.19;4992721;28;20058;-69
2021/12/05 13:47:29;;;;;;;0.50;0.50;;;;;;;8.39;89.12;98311.78;4992398;28;20061;-72
2021/12/05 13:49:56;;;;;;;0.35;0.35;;;;;;;8.45;89.19;98321.31;4992005;28;20115;-70
2021/12/05 13:52:36;;;;;;;0.75;0.75;;;;;;;8.40;88.59;98309.91;4994933;28;20022;-70
2021/12/05 13:55:29;;;;;;;0.85;0.85;;;;;;;8.42;89.24;98321.09;5010195;28;20030;-72
2021/12/05 13:58:22;;;;;;;0.00;0.00;;;;;;;8.43;89.05;98323.47;5009708;28;20026;-70
2021/12/05 14:00:59;;;;;;;0.10;0.10;;;;;;;8.42;89.24;98332.56;5003034;28;20056;-72
2021/12/05 14:03:49;;;;;;;0.95;0.95;;;;;;;8.40;89.28;98324.03;5010442;28;20061;-71
2021/12/05 14:06:42;;;;;;;1.17;1.17;;;;;;;8.37;89.80;98331.78;4988486;28;20188;-71
2021/12/05 14:09:08;;;;;;;1.50;1.40;;;;;;;8.05;90.19;98293.16;4992112;28;20031;-71
2021/12/05 14:11:36;;;;;;;0.25;0.25;;;;;;;8.25;89.89;98326.81;4974361;28;20057;-71
2021/12/05 14:14:04;;;;;;;0.55;0.52;;;;;;;8.23;90.42;98331.63;4991902;28;20022;-72
2021/12/05 14:16:35;;;;;;;0.20;0.20;;;;;;;8.24;90.81;98341.19;4993325;28;20033;-72
2021/12/05 14:19:04;;;;;;;1.30;1.25;;;;;;;8.17;91.21;98330.88;5010506;28;20065;-72
2021/12/05 14:21:30;;;;;;;3.10;1.20;;;;;;;8.11;91.97;98322.09;5009373;28;20057;-75
2021/12/05 14:23:59;;;;;;;0.63;0.63;;;;;;;8.08;92.19;98316.53;5000515;28;20512;-70
2021/12/05 14:26:27;;;;;;;1.75;1.65;;;;;;;8.07;92.55;98328.25;5011307;28;20022;-71
2021/12/05 14:29:28;;;;;;;0.08;0.08;;;;;;;8.14;92.82;98339.41;4996294;28;20037;-71
2021/12/05 14:32:22;;;;;;;0.43;0.43;;;;;;;8.05;93.19;98322.44;4950883;29;20097;-70
2021/12/05 14:34:49;;;;;;;0.10;0.10;;;;;;;8.02;93.57;98324.56;4973974;28;20162;-72
2021/12/05 14:37:19;;;;;;;1.10;0.87;;;;;;;8.07;93.37;98328.25;5010967;28;20026;-71
2021/12/05 14:39:50;;;;;;;0.43;0.43;;;;;;;7.81;93.45;98302.63;4992752;28;20380;-72
2021/12/05 14:42:21;;;;;;;0.68;0.68;;;;;;;8.12;93.56;98326.38;4991426;28;20529;-71
2021/12/05 14:44:50;;;;;;;0.10;0.10;;;;;;;8.14;93.74;98339.41;4991708;28;20034;-72
2021/12/05 14:47:19;;;;;;;0.00;0.00;;;;;;;8.14;93.84;98336.72;4991433;28;20022;-70
2021/12/05 14:49:57;;;;;;;0.30;0.30;;;;;;;8.10;93.83;98328.50;4994418;28;20034;-73
2021/12/05 14:52:26;;;;;;;0.30;0.30;;;;;;;8.02;93.97;98313.91;4977722;28;20026;-72
2021/12/05 14:54:53;;;;;;;0.32;0.32;;;;;;;8.08;94.26;98330.66;5001481;28;20045;-71
2021/12/05 14:57:24;;;;;;;0.85;0.85;;;;;;;8.00;94.45;98318.72;5006724;28;20026;-71
2021/12/05 14:59:52;;;;;;;0.10;0.10;;;;;;;8.09;94.12;98332.25;5001034;28;20049;-76
2021/12/05 15:02:19;;;;;;;0.65;0.65;;;;;;;8.09;94.24;98326.13;4987284;28;20651;-73
2021/12/05 15:04:51;;;;;;;0.95;0.95;;;;;;;8.06;94.53;98327.47;5015074;28;20061;-74
2021/12/05 15:07:21;;;;;;;0.10;0.10;;;;;;;8.07;94.43;98330.91;4993982;28;20034;-78
2021/12/05 15:09:50;;;;;;;0.20;0.20;;;;;;;8.06;94.34;98324.81;4978011;28;20034;-72
2021/12/05 15:12:20;;;;;;;0.95;0.95;;;;;;;8.02;95.20;98334.44;4995346;28;20022;-73
2021/12/05 15:14:48;;;;;;;1.25;1.15;;;;;;;7.99;95.40;98337.63;5005801;28;20087;-75
2021/12/05 15:17:14;;;;;;;;;;;;;;;7.94;96.12;98335.00;4999494;28;20041;-78
2021/12/05 15:19:43;;;;;;;0.60;0.60;;;;;;;7.90;96.63;98332.09;4993739;28;20008;-76
2021/12/05 15:22:12;;;;;;;0.00;0.00;;;;;;;7.82;96.68;98322.03;4986371;28;20437;-71
2021/12/05 15:24:37;;;;;;;;;;;;;;;7.91;97.32;98335.56;5014773;28;20099;-68
2021/12/05 15:27:10;;;;;;;0.00;0.00;;;;;;;7.87;97.54;98340.63;4995201;28;19913;-71
2021/12/05 15:29:36;;;;;;;0.47;0.47;;;;;;;7.81;97.88;98326.56;4995174;28;20038;-70
2021/12/05 15:32:01;;;;;;;0.00;0.00;;;;;;;7.90;98.55;98344.59;4995151;28;20416;-72
2021/12/05 15:34:35;;;;;;;0.10;0.10;;;;;;;7.80;98.03;98330.31;4998277;28;20037;-72
2021/12/05 15:37:08;;;;;;;0.98;0.98;;;;;;;7.80;98.00;98340.13;5014303;28;20032;-72
2021/12/05 15:39:35;;;;;;;0.20;0.20;;;;;;;7.68;98.57;98316.53;5011001;28;20029;-72
2021/12/05 15:42:11;;;;;;;0.00;0.00;;;;;;;7.84;98.63;98341.97;4993544;28;20401;-72
2021/12/05 15:44:39;;;;;;;0.35;0.35;;;;;;;7.86;98.77;98336.41;5002139;28;20097;-73
2021/12/05 15:47:17;;;;;;;6.82;1.75;;;;;;;7.85;99.17;98330.25;5014560;28;20105;-70
2021/12/05 15:49:47;;;;;;;0.30;0.30;;;;;;;7.92;99.00;98343.28;4999411;28;20100;-74
2021/12/05 15:52:13;;;;;;;0.00;0.00;;;;;;;7.86;99.44;98331.06;4994902;28;20053;-71
2021/12/05 15:54:41;;;;;;;0.28;0.28;;;;;;;7.98;99.21;98347.50;4999253;28;20026;-71
2021/12/05 15:57:25;;;;;;;0.10;0.10;;;;;;;7.98;99.52;98352.03;4996732;28;20022;-72
2021/12/05 15:59:51;;;;;;;0.20;0.20;;;;;;;7.95;99.42;98345.38;5012490;28;20037;-73
2021/12/05 16:02:18;;;;;;;0.20;0.20;;;;;;;8.03;99.23;98354.66;4996959;28;20037;-72
2021/12/05 16:04:46;;;;;;;1.48;1.38;;;;;;;7.93;99.22;98336.88;5006368;28;20481;-71
2021/12/05 16:07:12;;;;;;;0.45;0.45;;;;;;;8.02;99.68;98343.22;4992145;28;20449;-72
2021/12/05 16:09:40;;;;;;;0.10;0.10;;;;;;;8.09;99.35;98348.25;5012680;28;20053;-74
2021/12/05 16:12:17;;;;;;;0.00;0.00;;;;;;;8.04;99.74;98337.59;4996150;28;20032;-73
2021/12/05 16:14:52;;;;;;;0.10;0.10;;;;;;;8.09;99.27;98340.25;5013659;28;20037;-73
2021/12/05 16:17:27;;;;;;;0.10;0.10;;;;;;;8.13;99.61;98349.28;4987208;28;20042;-73
2021/12/05 16:20:16;;;;;;;0.00;0.00;;;;;;;8.14;100.00;98347.38;5012168;28;20029;-71
2021/12/05 16:22:55;;;;;;;0.90;0.57;;;;;;;8.11;100.00;98346.06;4994354;28;20062;-71
2021/12/05 16:25:20;;;;;;;;;;;;;;;8.17;99.69;98342.31;4998311;28;20446;-72
2021/12/05 16:27:50;;;;;;;1.45;1.35;;;;;;;8.05;100.00;98328.53;4983444;28;19968;-72
2021/12/05 16:30:30;;;;;;;0.60;0.43;;;;;;;8.07;100.00;98328.25;4993444;28;20378;-72
2021/12/05 16:32:55;;;;;;;0.10;0.10;;;;;;;8.08;100.00;98327.19;4993967;28;20058;-73
2021/12/05 16:35:29;;;;;;;1.35;1.25;;;;;;;8.12;100.00;98342.34;4998114;28;20061;-73
2021/12/05 16:37:55;;;;;;;0.00;0.00;;;;;;;8.15;100.00;98352.47;5013078;28;20036;-72
2021/12/05 16:40:21;;;;;;;0.13;0.13;;;;;;;8.05;100.00;98333.88;5001712;28;20026;-74
2021/12/05 16:42:46;;;;;;;0.68;0.68;;;;;;;8.04;100.00;98348.25;4976356;28;20547;-73
2021/12/05 16:45:12;;;;;;;0.10;0.10;;;;;;;7.98;100.00;98344.03;4978571;28;20034;-74
2021/12/05 16:47:38;;;;;;;0.32;0.32;;;;;;;8.07;100.00;98350.38;4976338;28;20034;-71
2021/12/05 16:50:07;;;;;;;0.00;0.00;;;;;;;8.04;100.00;98342.94;4994550;28;20113;-73
2021/12/05 16:52:42;;;;;;;0.20;0.20;;;;;;;7.99;100.00;98334.97;4995494;28;20190;-71
2021/12/05 16:55:26;;;;;;;0.22;0.22;;;;;;;8.00;100.00;98341.91;5010544;28;20033;-71
2021/12/05 16:58:02;;;;;;;0.52;0.52;;;;;;;8.01;100.00;98351.47;5003755;28;20417;-72
2021/12/05 17:00:29;;;;;;;0.47;0.47;;;;;;;8.01;100.00;98351.47;4990144;28;20501;-72
2021/12/05 17:02:58;;;;;;;0.15;0.15;;;;;;;8.01;100.00;98359.47;4993963;28;20029;-71
2021/12/05 17:05:37;;;;;;;0.25;0.25;;;;;;;8.03;100.00;98362.63;5006347;28;20046;-76
2021/12/05 17:08:12;;;;;;;5.95;0.63;;;;;;;7.95;100.00;98358.69;5006300;28;20083;-74
2021/12/05 17:11:05;;;;;;;0.80;0.80;;;;;;;8.02;100.00;98369.06;4999407;28;20035;-74
2021/12/05 17:13:46;;;;;;;10.48;1.20;;;;;;;7.96;100.00;98351.53;5007372;28;20089;-74
2021/12/05 17:16:25;;;;;;;1.13;1.10;;;;;;;7.98;100.00;98366.16;4987415;28;20029;-74
2021/12/05 17:18:57;;;;;;;15.48;1.55;;;;;;;7.94;100.00;98370.41;4992130;28;20480;-74
2021/12/05 17:21:29;;;;;;;0.10;0.10;;;;;;;7.92;100.00;98366.44;5011183;28;20049;-74
2021/12/05 17:23:56;;;;;;;0.10;0.10;;;;;;;7.93;100.00;98362.72;5010459;28;20041;-74
2021/12/05 17:26:37;;;;;;;0.30;0.30;;;;;;;7.83;100.00;98350.25;4994544;28;20477;-74
2021/12/05 17:29:05;;;;;;;0.30;0.30;;;;;;;7.90;100.00;98364.06;4991752;28;20030;-75
2021/12/05 17:31:37;;;;;;;0.80;0.80;;;;;;;7.89;100.00;98373.09;4996170;28;20061;-75
2021/12/05 17:34:08;;;;;;;0.03;0.03;;;;;;;7.87;100.00;98361.94;4993967;28;20069;-75
2021/12/05 17:36:33;;;;;;;1.27;1.25;;;;;;;7.92;100.00;98374.41;4992733;28;20482;-76
2021/12/05 17:39:06;;;;;;;0.10;0.10;;;;;;;7.93;100.00;98366.16;4992794;28;20081;-78
2021/12/05 17:41:35;;;;;;;0.70;0.70;;;;;;;7.92;100.00;98350.47;4980221;28;20029;-74
2021/12/05 17:44:03;;;;;;;0.35;0.35;;;;;;;7.93;100.00;98344.06;5005245;28;20037;-74
2021/12/05 17:46:30;;;;;;;0.00;0.00;;;;;;;7.95;100.00;98342.72;4985902;28;20672;-74
2021/12/05 17:48:56;;;;;;;0.57;0.57;;;;;;;7.87;100.00;98340.63;4994246;28;20034;-74
2021/12/05 17:51:27;;;;;;;1.80;1.80;;;;;;;7.83;100.00;98334.28;4989065;28;20082;-73